• Join FlightAware (Why Join?)
  • Login
  • US Flag 
02:30AM EST


 

Airport Tracker/Info


-or-


 

Live Flight TrackerFlight Track Log ✈ UPS1216 ✈ 03-May-2013 ✈ KRFD - KBWI

Flight Track Log - Related Links

Times and Time Zones

All times are in EDT time to prevent confusion due to time zone crossing. See the UPS1216 flight status page for this flight to view local times or setup timezone preferences in your user account.

Time Position Orientation Groundspeed Altitude Reporting Facility
EDT Latitude Longitude Course Direction KTS MPH feet Rate Location/Type
04:01AM 42.1980 -89.0970 65° Northeast 152 175 1,200  Level FlightAware
04:01AM 42.2010 -89.0780 78° East 171 197 2,400 3,060 Climbing FlightAware
04:02AM 42.2020 -89.0610 85° East 183 211 3,000 2,100 Climbing FlightAware
04:02AM 42.2030 -89.0310 87° East 210 242 3,800 1,800 Climbing FlightAware
04:02AM 42.2050 -88.9880 86° East 244 281 4,700 2,040 Climbing FlightAware
04:03AM 42.2050 -88.9480 90° East 264 304 5,700 2,820 Climbing FlightAware
04:03AM 42.2060 -88.8980 88° East 271 312 7,300 2,940 Climbing FlightAware
04:04AM 42.2060 -88.8590 90° East 278 320 8,400 2,820 Climbing FlightAware
04:05AM 42.2080 -88.7780 88° East 299 344 10,600 2,220 Climbing FlightAware
04:05AM 42.2090 -88.6940 89° East 343 395 11,600 1,860 Climbing FlightAware
04:06AM 42.2120 -88.5980 88° East 363 418 13,300 2,400 Climbing FlightAware
04:07AM 42.2150 -88.5020 88° East 373 429 15,000 2,400 Climbing FlightAware
04:07AM 42.2150 -88.4110 90° East 385 443 16,500 2,220 Climbing FlightAware
04:08AM 42.2180 -88.2990 88° East 390 449 18,200 2,040 Climbing FlightAware
04:09AM 42.2190 -88.2010 89° East 397 457 19,400 1,680 Climbing FlightAware
04:09AM 42.2200 -88.0900 89° East 407 468 20,600 1,500 Climbing FlightAware
04:10AM 42.2210 -88.0020 89° East 416 479 21,400 1,380 Climbing FlightAware
04:11AM 42.2000 -87.8880 104° East 413 475 22,500 1,320 Climbing FlightAware
04:11AM 42.1660 -87.7930 116° Southeast 420 483 23,300 1,320 Climbing FlightAware
04:12AM 42.1300 -87.6910 115° Southeast 422 486 24,400 1,320 Climbing FlightAware
04:13AM 42.0920 -87.5840 116° Southeast 428 493 25,300 1,260 Climbing FlightAware
04:14AM 42.0550 -87.4790 115° Southeast 434 499 26,200 1,380 Climbing FlightAware
04:14AM 42.0160 -87.3710 116° Southeast 439 505 27,300 1,380 Climbing FlightAware
04:15AM 41.9800 -87.2700 116° Southeast 445 512 28,200 1,200 Climbing FlightAware
04:16AM 41.9440 -87.1690 116° Southeast 451 519 28,900 1,080 Climbing FlightAware
04:16AM 41.9070 -87.0670 116° Southeast 458 527 29,700 1,500 Climbing FlightAware
04:17AM 41.8660 -86.9530 116° Southeast 458 527 31,100 1,740 Climbing FlightAware
04:18AM 41.8280 -86.8470 116° Southeast 462 532 32,200 1,260 Climbing FlightAware
04:19AM 41.7850 -86.7310 116° Southeast 470 541 32,900 1,380 Climbing FlightAware
04:19AM 41.7470 -86.6260 116° Southeast 466 536 34,200 1,920 Climbing FlightAware
04:20AM 41.7050 -86.5140 117° Southeast 458 527 35,700 1,860 Climbing FlightAware
04:21AM 41.6660 -86.4060 116° Southeast 453 521 36,900 960 Climbing FlightAware
04:21AM 41.6300 -86.3090 116° Southeast 452 520 37,000 60 Climbing FlightAware
04:22AM 41.5870 -86.1930 116° Southeast 451 519 37,000  Level FlightAware
04:23AM 41.5520 -86.1000 117° Southeast 452 520 37,000  Level FlightAware
04:23AM 41.5170 -85.9760 111° Southeast 457 526 37,000  Level FlightAware
04:24AM 41.4960 -85.8630 104° East 458 527 37,000  Level FlightAware
04:25AM 41.4750 -85.7420 103° East 458 527 37,000  Level FlightAware
04:26AM 41.4550 -85.6300 103° East 457 526 37,000  Level FlightAware
04:26AM 41.4350 -85.5200 104° East 455 524 37,000  Level FlightAware
04:27AM 41.4140 -85.4050 104° East 454 522 37,000  Level FlightAware
04:28AM 41.3940 -85.2920 103° East 453 521 37,000  Level FlightAware
04:28AM 41.3740 -85.1790 103° East 453 521 37,000  Level FlightAware
04:29AM 41.3520 -85.0600 104° East 453 521 37,000  Level FlightAware
04:30AM 41.3310 -84.9450 104° East 453 521 37,000  Level FlightAware
04:30AM 41.3090 -84.8270 104° East 454 522 37,000  Level FlightAware
04:31AM 41.2890 -84.7180 104° East 455 524 37,000  Level FlightAware
04:32AM 41.2680 -84.6080 104° East 455 524 37,000  Level FlightAware
04:33AM 41.2460 -84.4900 104° East 455 524 37,000  Level FlightAware
04:33AM 41.2240 -84.3740 104° East 455 524 37,000  Level FlightAware
04:34AM 41.2010 -84.2530 104° East 455 524 37,000  Level FlightAware
04:35AM 41.1800 -84.1450 104° East 455 524 37,000  Level FlightAware
04:35AM 41.1550 -84.0330 106° East 453 521 37,000  Level FlightAware
04:36AM 41.1220 -83.9170 111° Southeast 451 519 37,000  Level FlightAware
04:37AM 41.0910 -83.8120 111° Southeast 449 517 37,000  Level FlightAware
04:37AM 41.0570 -83.7010 112° Southeast 449 517 37,000  Level FlightAware
04:38AM 41.0260 -83.5970 112° Southeast 448 516 37,000  Level FlightAware
04:39AM 40.9940 -83.4950 113° Southeast 447 514 37,000  Level FlightAware
04:40AM 40.9580 -83.3780 112° Southeast 447 514 37,000  Level FlightAware
04:40AM 40.9270 -83.2780 112° Southeast 447 514 37,000  Level FlightAware
04:41AM 40.8980 -83.1830 112° Southeast 447 514 37,000  Level FlightAware
04:42AM 40.8610 -83.0650 112° Southeast 448 516 37,000  Level FlightAware
04:42AM 40.8280 -82.9600 113° Southeast 447 514 37,000  Level FlightAware
04:43AM 40.7930 -82.8460 112° Southeast 447 514 37,000  Level FlightAware
04:44AM 40.7630 -82.7510 113° Southeast 447 514 37,000  Level FlightAware
04:44AM 40.7300 -82.6480 113° Southeast 446 513 37,000  Level FlightAware
04:45AM 40.6930 -82.5320 113° Southeast 446 513 37,000  Level FlightAware
04:46AM 40.6600 -82.4280 113° Southeast 445 512 37,000  Level FlightAware
04:47AM 40.6250 -82.3190 113° Southeast 445 512 37,000  Level FlightAware
04:47AM 40.5920 -82.2170 113° Southeast 445 512 37,000  Level FlightAware
04:48AM 40.5600 -82.1180 113° Southeast 446 513 37,000  Level FlightAware
04:49AM 40.5240 -82.0090 113° Southeast 446 513 37,000  Level FlightAware
04:49AM 40.4910 -81.9070 113° Southeast 447 514 37,000  Level FlightAware
04:50AM 40.4540 -81.7940 113° Southeast 448 516 37,000  Level FlightAware
04:51AM 40.4210 -81.6930 113° Southeast 448 516 37,000  Level FlightAware
04:51AM 40.3880 -81.5910 113° Southeast 449 517 37,000  Level FlightAware
04:52AM 40.3510 -81.4810 114° Southeast 450 518 37,000  Level FlightAware
04:53AM 40.3180 -81.3800 113° Southeast 450 518 37,000  Level FlightAware
04:53AM 40.2830 -81.2760 114° Southeast 450 518 37,000  Level FlightAware
04:54AM 40.2460 -81.1650 114° Southeast 451 519 37,000  Level FlightAware
04:55AM 40.2130 -81.0670 114° Southeast 452 520 37,000  Level FlightAware
04:56AM 40.1750 -80.9550 114° Southeast 453 521 37,000  Level FlightAware
04:56AM 40.1410 -80.8540 114° Southeast 453 521 37,000  Level FlightAware
04:57AM 40.1080 -80.7540 113° Southeast 453 521 37,000  Level FlightAware
04:58AM 40.0680 -80.6370 114° Southeast 454 522 37,000  Level FlightAware
04:58AM 40.0370 -80.5460 114° Southeast 454 522 37,000  Level FlightAware
04:59AM 39.9950 -80.4250 114° Southeast 454 522 37,000  Level FlightAware
05:00AM 39.9610 -80.3260 114° Southeast 453 521 37,000  Level FlightAware
05:00AM 39.9260 -80.2230 114° Southeast 452 520 37,000  Level FlightAware
05:01AM 39.8980 -80.1440 115° Southeast 451 519 37,000  Level FlightAware
05:01AM 39.8839 -80.0911 115° Southeast 453 521 37,000  Level Washington Center
05:02AM 39.8436 -79.9372 109° East 448 516 37,000 -720 Level Washington Center
05:03AM 39.8117 -79.7839 105° East 443 510 35,600 -2,040 Descending Washington Center
05:04AM 39.7647 -79.6300 112° Southeast 448 516 33,000 -1,680 Descending Washington Center
05:11AM 39.5060 -78.7370 112° Southeast 398 458 23,500 -1,500 Descending FlightAware
05:12AM 39.4920 -78.6310 100° East 395 455 22,600 -1,080 Descending FlightAware
05:12AM 39.4800 -78.5380 99° East 390 449 22,000 -900 Descending FlightAware
05:13AM 39.4680 -78.4460 100° East 385 443 21,400 -900 Descending FlightAware
05:14AM 39.4560 -78.3560 100° East 380 437 20,800 -960 Descending FlightAware
05:14AM 39.4430 -78.2560 100° East 373 429 20,100 -900 Descending FlightAware
05:15AM 39.4310 -78.1690 100° East 366 421 19,600 -1,140 Descending FlightAware
05:16AM 39.4190 -78.0820 100° East 363 418 18,600 -1,740 Descending FlightAware
05:16AM 39.4120 -77.9970 96° East 358 412 17,300 -1,440 Descending FlightAware
05:17AM 39.4190 -77.8930 85° East 357 411 16,500 -1,320 Descending FlightAware
05:18AM 39.4260 -77.8080 84° East 352 405 15,400 -1,680 Descending FlightAware
05:18AM 39.4330 -77.7250 84° East 340 391 14,300 -1,860 Descending FlightAware
05:19AM 39.4410 -77.6330 84° East 333 383 12,800 -1,800 Descending FlightAware
05:20AM 39.4470 -77.5620 84° East 322 371 11,800 -1,620 Descending FlightAware
05:21AM 39.4540 -77.4790 84° East 322 371 10,700 -900 Descending FlightAware
05:21AM 39.4610 -77.3980 84° East 281 323 10,600 -480 Descending FlightAware
05:22AM 39.4660 -77.3350 84° East 262 302 10,100 -1,140 Descending FlightAware
05:22AM 39.4690 -77.2940 85° East 263 303 9,400 -1,740 Descending FlightAware
05:23AM 39.4650 -77.2630 99° East 264 304 8,800 -1,740 Descending FlightAware
05:23AM 39.4550 -77.2250 109° East 266 306 8,100 -1,560 Descending FlightAware
05:24AM 39.4430 -77.1780 108° East 265 305 7,400 -1,200 Descending FlightAware
05:24AM 39.4320 -77.1340 108° East 259 298 6,900 -1,140 Descending FlightAware
05:25AM 39.4250 -77.1040 107° East 258 297 6,400 -1,200 Descending FlightAware
05:25AM 39.4190 -77.0830 110° East 257 296 6,100 -1,200 Descending FlightAware
05:25AM 39.4100 -77.0450 107° East 253 291 5,600 -1,200 Descending FlightAware
05:26AM 39.3980 -77.0030 110° East 247 284 5,000 -1,440 Descending FlightAware
05:26AM 39.3910 -76.9760 109° East 240 276 4,400 -2,040 Descending FlightAware
05:27AM 39.3750 -76.9160 109° East 234 269 2,800 -1,620 Descending FlightAware
05:27AM 39.3690 -76.8910 107° East 216 249 2,700 -240 Descending FlightAware
05:28AM 39.3570 -76.8550 113° Southeast 193 222 2,600 -180 Descending FlightAware
05:28AM 39.3540 -76.8500 128° Southeast 188 216 2,600 120 Level FlightAware
05:28AM 39.3390 -76.8270 130° Southeast 161 185 2,700 60 Climbing FlightAware
05:29AM 39.3240 -76.8100 139° Southeast 147 169 2,700 -120 Level FlightAware
05:29AM 39.2980 -76.7860 144° Southeast 148 170 2,600 -420 Descending FlightAware
05:30AM 39.2830 -76.7720 144° Southeast 150 173 2,200 -780 Descending FlightAware
05:30AM 39.2750 -76.7640 142° Southeast 147 169 2,100 -720 Descending FlightAware
05:30AM 39.2650 -76.7550 145° Southeast 146 168 1,800 -720 Descending FlightAware
05:31AM 39.2540 -76.7460 148° Southeast 127 146 1,600 -240 Descending FlightAware
05:31AM 39.2430 -76.7360 145° Southeast 127 146 1,600 -480 Level FlightAware
05:32AM 39.2333 -76.7167 145° Southeast 113 130 1,200 -720 Descending Potomac TRACON
05:33AM 39.2000 -76.7000 159° South 116 133 600 -600 Descending Potomac TRACON
05:35AM 39.1754 -76.6683 142° Southeast  Level Estimated
05:42AM 39.1754 -76.6683 142° Southeast  Level Estimated
05:43AM 39.1754 -76.6683 142° Southeast  Level Estimated
05:44AM 39.1754 -76.6683 142° Southeast  Level Estimated